createdAt,value
2018-12-22T00:00:23.404Z,9.5
2018-12-22T00:01:23.297Z,9.5
2018-12-22T00:02:24.178Z,9.5
2018-12-22T00:03:23.702Z,9.6
2018-12-22T00:04:23.439Z,9.6
2018-12-22T00:05:23.504Z,9.6
2018-12-22T00:06:23.423Z,9.5
2018-12-22T00:07:23.663Z,9.5
2018-12-22T00:08:23.667Z,9.6
2018-12-22T00:09:23.655Z,9.6
2018-12-22T00:10:23.468Z,9.6
2018-12-22T00:11:23.244Z,9.7
2018-12-22T00:12:23.426Z,9.7
2018-12-22T00:13:23.729Z,9.7
2018-12-22T00:14:23.448Z,9.6
2018-12-22T00:15:23.706Z,9.6
2018-12-22T00:16:23.698Z,9.7
2018-12-22T00:17:24.905Z,9.7
2018-12-22T00:18:23.778Z,9.7
2018-12-22T00:19:23.250Z,9.7
2018-12-22T00:20:23.494Z,9.7
2018-12-22T00:21:23.228Z,9.7
2018-12-22T00:22:23.701Z,9.7
2018-12-22T00:23:23.292Z,9.7
2018-12-22T00:24:23.270Z,9.7
2018-12-22T00:25:23.507Z,9.7
2018-12-22T00:26:23.693Z,9.7
2018-12-22T00:27:23.752Z,9.7
2018-12-22T00:28:23.527Z,9.7
2018-12-22T00:29:23.464Z,9.6
2018-12-22T00:30:23.720Z,9.6
2018-12-22T00:31:23.755Z,9.6
2018-12-22T00:32:23.482Z,9.6
2018-12-22T00:33:23.531Z,9.6
2018-12-22T00:34:23.488Z,9.6
2018-12-22T00:35:23.714Z,9.6
2018-12-22T00:36:23.514Z,9.6
2018-12-22T00:37:23.501Z,9.6
2018-12-22T00:38:23.753Z,9.6
2018-12-22T00:39:23.474Z,9.6
2018-12-22T00:40:23.543Z,9.6
2018-12-22T00:41:24.368Z,9.6
2018-12-22T00:42:23.531Z,9.6
2018-12-22T00:43:23.718Z,9.6
2018-12-22T00:44:23.530Z,9.6
2018-12-22T00:45:23.527Z,9.6
2018-12-22T00:46:23.788Z,9.6
2018-12-22T00:47:23.316Z,9.6
2018-12-22T00:48:23.349Z,9.6
2018-12-22T00:49:23.520Z,9.6
2018-12-22T00:50:23.580Z,9.6
2018-12-22T00:51:23.529Z,9.6
2018-12-22T00:52:23.839Z,9.6
2018-12-22T00:53:23.540Z,9.6
2018-12-22T00:54:23.628Z,9.7
2018-12-22T00:55:23.326Z,9.7
2018-12-22T00:56:24.421Z,9.7
2018-12-22T00:57:23.782Z,9.8
2018-12-22T00:58:30.537Z,9.8
2018-12-22T00:59:23.531Z,9.8
2018-12-22T01:00:23.517Z,9.8
2018-12-22T01:01:23.329Z,9.8
2018-12-22T01:02:23.790Z,9.8
2018-12-22T01:03:23.714Z,9.8
2018-12-22T01:04:23.590Z,9.8
2018-12-22T01:05:23.366Z,9.8
2018-12-22T01:06:23.380Z,9.8
2018-12-22T01:07:23.583Z,9.8
2018-12-22T01:08:24.564Z,9.8
2018-12-22T01:09:23.553Z,9.7
2018-12-22T01:10:23.689Z,9.7
2018-12-22T01:11:23.376Z,9.7
2018-12-22T01:12:23.846Z,9.6
2018-12-22T01:13:23.338Z,9.6
2018-12-22T01:14:23.513Z,9.6
2018-12-22T01:15:23.573Z,9.6
2018-12-22T01:16:24.768Z,9.6
2018-12-22T01:17:23.354Z,9.6
2018-12-22T01:18:24.432Z,9.6
2018-12-22T01:19:23.551Z,9.6
2018-12-22T01:20:23.429Z,9.6
2018-12-22T01:21:23.560Z,9.6
2018-12-22T01:22:23.580Z,9.7
2018-12-22T01:23:23.527Z,9.7
2018-12-22T01:24:24.100Z,9.7
2018-12-22T01:25:24.267Z,9.6
2018-12-22T01:26:23.443Z,9.6
2018-12-22T01:27:23.607Z,9.7
2018-12-22T01:28:23.387Z,9.7
2018-12-22T01:29:23.825Z,9.7
2018-12-22T01:30:24.206Z,9.7
2018-12-22T01:31:23.589Z,9.7
2018-12-22T01:32:23.443Z,9.6
2018-12-22T01:33:23.630Z,9.6
2018-12-22T01:34:23.631Z,9.6
2018-12-22T01:35:23.533Z,9.7
2018-12-22T01:36:23.640Z,9.7
2018-12-22T01:37:23.554Z,9.8
2018-12-22T01:38:24.862Z,9.8
2018-12-22T01:39:23.398Z,9.8
2018-12-22T01:40:23.879Z,9.9
2018-12-22T01:41:23.421Z,9.9
2018-12-22T01:42:23.833Z,9.9
2018-12-22T01:43:23.595Z,9.9
2018-12-22T01:44:23.608Z,9.9
2018-12-22T01:45:23.618Z,9.8
2018-12-22T01:46:23.622Z,9.8
2018-12-22T01:47:23.434Z,9.8
2018-12-22T01:48:23.933Z,9.8
2018-12-22T01:49:23.605Z,9.8
2018-12-22T01:50:23.615Z,9.8
2018-12-22T01:51:23.552Z,9.8
2018-12-22T01:52:23.583Z,9.8
2018-12-22T01:53:23.620Z,9.8
2018-12-22T01:54:23.460Z,9.8
2018-12-22T01:55:23.837Z,9.7
2018-12-22T01:56:23.561Z,9.7
2018-12-22T01:57:23.408Z,9.7
2018-12-22T01:58:23.451Z,9.6
2018-12-22T01:59:23.426Z,9.6
2018-12-22T02:00:23.853Z,9.6
2018-12-22T02:01:23.573Z,9.6
2018-12-22T02:02:23.614Z,9.6
2018-12-22T02:03:23.923Z,9.5
2018-12-22T02:04:23.623Z,9.5
2018-12-22T02:05:23.587Z,9.4
2018-12-22T02:06:23.418Z,9.4
2018-12-22T02:07:23.612Z,9.4
2018-12-22T02:08:23.888Z,9.4
2018-12-22T02:09:23.910Z,9.4
2018-12-22T02:10:23.608Z,9.4
2018-12-22T02:11:23.581Z,9.4
2018-12-22T02:12:23.391Z,9.4
2018-12-22T02:13:23.408Z,9.3
2018-12-22T02:14:23.642Z,9.3
2018-12-22T02:15:23.659Z,9.3
2018-12-22T02:16:23.941Z,9.3
2018-12-22T02:17:23.422Z,9.3
2018-12-22T02:18:23.443Z,9.3
2018-12-22T02:19:23.895Z,9.3
2018-12-22T02:20:23.694Z,9.3
2018-12-22T02:21:23.419Z,9.2
2018-12-22T02:22:23.683Z,9.2
2018-12-22T02:23:23.462Z,9.2
2018-12-22T02:24:23.928Z,9.2
2018-12-22T02:25:23.937Z,9.2
2018-12-22T02:26:23.496Z,9.3
2018-12-22T02:27:23.665Z,9.3
2018-12-22T02:28:23.697Z,9.2
2018-12-22T02:29:23.450Z,9.2
2018-12-22T02:30:23.715Z,9.2
2018-12-22T02:31:23.705Z,9.3
2018-12-22T02:32:23.700Z,9.3
2018-12-22T02:33:23.494Z,9.4
2018-12-22T02:34:23.449Z,9.4
2018-12-22T02:35:23.943Z,9.4
2018-12-22T02:36:23.970Z,9.4
2018-12-22T02:37:23.794Z,9.4
2018-12-22T02:38:23.769Z,9.5
2018-12-22T02:39:23.704Z,9.5
2018-12-22T02:40:23.760Z,9.5
2018-12-22T02:41:23.931Z,9.6
2018-12-22T02:42:23.702Z,9.6
2018-12-22T02:43:23.979Z,9.6
2018-12-22T02:44:23.499Z,9.6
2018-12-22T02:45:23.729Z,9.6
2018-12-22T02:46:23.732Z,9.5
2018-12-22T02:47:23.680Z,9.5
2018-12-22T02:48:23.693Z,9.5
2018-12-22T02:49:23.723Z,9.6
2018-12-22T02:50:23.533Z,9.6
2018-12-22T02:51:24.001Z,9.6
2018-12-22T02:52:23.508Z,9.6
2018-12-22T02:53:23.667Z,9.6
2018-12-22T02:54:23.488Z,9.6
2018-12-22T02:55:23.737Z,9.6
2018-12-22T02:56:23.508Z,9.6
2018-12-22T02:57:23.690Z,9.6
2018-12-22T02:58:23.689Z,9.6
2018-12-22T02:59:23.695Z,9.6
2018-12-22T03:00:23.765Z,9.6
2018-12-22T03:01:23.577Z,9.6
2018-12-22T03:02:23.546Z,9.6
2018-12-22T03:03:23.782Z,9.6
2018-12-22T03:04:23.997Z,9.6
2018-12-22T03:05:23.523Z,9.6
2018-12-22T03:06:23.791Z,9.8
2018-12-22T03:07:23.591Z,9.8
2018-12-22T03:08:23.552Z,9.8
2018-12-22T03:09:23.580Z,9.8
2018-12-22T03:10:23.773Z,9.8
2018-12-22T03:11:23.773Z,9.6
2018-12-22T03:12:23.567Z,9.6
2018-12-22T03:13:23.744Z,9.6
2018-12-22T03:14:23.776Z,9.6
2018-12-22T03:15:23.554Z,9.6
2018-12-22T03:16:24.013Z,9.6
2018-12-22T03:17:23.748Z,9.6
2018-12-22T03:18:23.745Z,9.6
2018-12-22T03:19:23.995Z,9.6
2018-12-22T03:20:23.570Z,9.6
2018-12-22T03:21:23.749Z,9.6
2018-12-22T03:22:24.016Z,9.6
2018-12-22T03:23:23.558Z,9.6
2018-12-22T03:24:23.795Z,9.6
2018-12-22T03:25:23.622Z,9.6
2018-12-22T03:26:24.041Z,9.6
2018-12-22T03:27:23.566Z,9.6
2018-12-22T03:28:23.793Z,9.6
2018-12-22T03:29:23.575Z,9.5
2018-12-22T03:30:24.122Z,9.5
2018-12-22T03:31:23.840Z,9.5
2018-12-22T03:32:23.704Z,9.5
2018-12-22T03:33:23.899Z,9.5
2018-12-22T03:34:24.031Z,9.5
2018-12-22T03:35:23.784Z,9.5
2018-12-22T03:36:23.836Z,9.5
2018-12-22T03:37:23.622Z,9.5
2018-12-22T03:38:24.038Z,9.5
2018-12-22T03:39:23.809Z,9.5
2018-12-22T03:40:23.826Z,9.5
2018-12-22T03:41:23.868Z,9.5
2018-12-22T03:42:23.766Z,9.5
2018-12-22T03:43:23.608Z,9.5
2018-12-22T03:44:23.797Z,9.5
2018-12-22T03:45:24.095Z,9.5
2018-12-22T03:46:23.853Z,9.5
2018-12-22T03:47:23.579Z,9.5
2018-12-22T03:48:23.828Z,9.5
2018-12-22T03:49:23.790Z,9.5
2018-12-22T03:50:23.911Z,9.5
2018-12-22T03:51:23.808Z,9.5
2018-12-22T03:52:23.671Z,9.5
2018-12-22T03:53:23.845Z,9.5
2018-12-22T03:54:24.102Z,9.5
2018-12-22T03:55:23.634Z,9.5
2018-12-22T03:56:23.871Z,9.5
2018-12-22T03:57:23.820Z,9.4
2018-12-22T03:58:23.868Z,9.4
2018-12-22T03:59:24.673Z,9.4
2018-12-22T04:00:23.707Z,9.3
2018-12-22T04:01:23.853Z,9.3
2018-12-22T04:02:24.078Z,9.3
2018-12-22T04:03:23.860Z,9.3
2018-12-22T04:04:24.138Z,9.3
2018-12-22T04:05:23.849Z,9.3
2018-12-22T04:06:23.676Z,9.3
2018-12-22T04:07:23.946Z,9.3
2018-12-22T04:08:23.661Z,9.3
2018-12-22T04:09:23.646Z,9.3
2018-12-22T04:10:23.877Z,9.3
2018-12-22T04:11:24.130Z,9.3
2018-12-22T04:12:23.941Z,9.2
2018-12-22T04:13:23.925Z,9.2
2018-12-22T04:14:23.948Z,9.2
2018-12-22T04:15:23.720Z,9.2
2018-12-22T04:16:24.200Z,9.2
2018-12-22T04:17:23.901Z,9.2
2018-12-22T04:18:23.711Z,9.2
2018-12-22T04:19:23.905Z,9.2
2018-12-22T04:20:23.909Z,9.2
2018-12-22T04:21:23.920Z,9.2
2018-12-22T04:22:24.129Z,9.2
2018-12-22T04:23:23.739Z,9.2
2018-12-22T04:24:23.715Z,9.2
2018-12-22T04:25:23.923Z,9.2
2018-12-22T04:26:24.167Z,9.2
2018-12-22T04:27:23.703Z,9.2
2018-12-22T04:28:24.112Z,9.2
2018-12-22T04:29:23.871Z,9.2
2018-12-22T04:30:23.727Z,9.2
2018-12-22T04:31:23.872Z,9.2
2018-12-22T04:32:23.707Z,9.2
2018-12-22T04:33:24.216Z,9.2
2018-12-22T04:34:23.882Z,9.2
2018-12-22T04:35:23.848Z,9.2
2018-12-22T04:36:23.708Z,9.2
2018-12-22T04:37:24.166Z,9.2
2018-12-22T04:38:23.902Z,9.2
2018-12-22T04:39:24.160Z,9.2
2018-12-22T04:40:23.879Z,9.3
2018-12-22T04:41:24.164Z,9.3
2018-12-22T04:42:23.691Z,9.3
2018-12-22T04:43:23.735Z,9.3
2018-12-22T04:44:23.919Z,9.3
2018-12-22T04:45:23.975Z,9.3
2018-12-22T04:46:23.918Z,9.2
2018-12-22T04:47:23.946Z,9.2
2018-12-22T04:48:23.962Z,9.2
2018-12-22T04:49:23.803Z,9.2
2018-12-22T04:50:23.937Z,9.2
2018-12-22T04:51:23.912Z,9.2
2018-12-22T04:52:23.721Z,9.2
2018-12-22T04:53:23.946Z,9.2
2018-12-22T04:54:23.892Z,9.2
2018-12-22T04:55:23.755Z,9.2
2018-12-22T04:56:23.895Z,9.1
2018-12-22T04:57:23.768Z,9.1
2018-12-22T04:58:23.902Z,9.2
2018-12-22T04:59:24.152Z,9.2
2018-12-22T05:00:23.951Z,9.2
2018-12-22T05:01:24.212Z,9.0
2018-12-22T05:02:23.713Z,9.0
2018-12-22T05:03:23.744Z,9.0
2018-12-22T05:04:23.751Z,9.0
2018-12-22T05:05:23.761Z,9.0
2018-12-22T05:06:23.968Z,8.8
2018-12-22T05:07:23.984Z,8.8
2018-12-22T05:08:24.220Z,8.8
2018-12-22T05:09:23.912Z,8.8
2018-12-22T05:10:23.727Z,8.8
2018-12-22T05:11:23.912Z,8.8
2018-12-22T05:12:23.956Z,8.8
2018-12-22T05:13:23.911Z,8.7
2018-12-22T05:14:23.940Z,8.7
2018-12-22T05:15:23.962Z,8.7
2018-12-22T05:16:23.952Z,8.8
2018-12-22T05:17:23.981Z,8.8
2018-12-22T05:18:23.730Z,8.8
2018-12-22T05:19:24.188Z,8.7
2018-12-22T05:20:24.229Z,8.7
2018-12-22T05:21:24.225Z,8.7
2018-12-22T05:22:24.262Z,8.7
2018-12-22T05:23:23.780Z,8.7
2018-12-22T05:24:23.942Z,8.7
2018-12-22T05:25:23.983Z,8.7
2018-12-22T05:26:24.227Z,8.9
2018-12-22T05:27:23.994Z,8.9
2018-12-22T05:28:23.763Z,8.9
2018-12-22T05:29:24.015Z,8.9
2018-12-22T05:30:23.948Z,8.9
2018-12-22T05:31:23.997Z,8.9
2018-12-22T05:32:24.003Z,8.9
2018-12-22T05:33:23.843Z,8.9
2018-12-22T05:34:23.946Z,8.9
2018-12-22T05:35:24.002Z,8.9
2018-12-22T05:36:23.852Z,8.9
2018-12-22T05:37:23.979Z,8.9
2018-12-22T05:38:23.984Z,8.9
2018-12-22T05:39:23.960Z,8.8
2018-12-22T05:40:24.008Z,8.8
2018-12-22T05:41:24.301Z,8.8
2018-12-22T05:42:24.261Z,8.8
2018-12-22T05:43:24.290Z,8.8
2018-12-22T05:44:24.276Z,8.9
2018-12-22T05:45:24.254Z,8.9
2018-12-22T05:46:24.017Z,8.9
2018-12-22T05:47:24.027Z,8.9
2018-12-22T05:48:24.072Z,8.9
2018-12-22T05:49:23.835Z,9.0
2018-12-22T05:50:24.095Z,9.0
2018-12-22T05:51:23.903Z,9.0
2018-12-22T05:52:24.283Z,9.0
2018-12-22T05:53:24.078Z,9.0
2018-12-22T05:54:24.107Z,9.1
2018-12-22T05:55:24.113Z,9.1
2018-12-22T05:56:24.053Z,9.1
2018-12-22T05:57:24.026Z,9.1
2018-12-22T05:58:23.973Z,9.1
2018-12-22T05:59:24.070Z,9.1
2018-12-22T06:00:24.012Z,9.1
2018-12-22T06:01:24.305Z,9.1
2018-12-22T06:02:23.990Z,9.0
2018-12-22T06:03:24.259Z,9.0
2018-12-22T06:04:24.056Z,9.0
2018-12-22T06:05:24.005Z,9.0
2018-12-22T06:06:23.847Z,9.0
2018-12-22T06:07:24.073Z,9.0
2018-12-22T06:08:24.305Z,9.0
2018-12-22T06:09:23.833Z,9.0
2018-12-22T06:10:24.305Z,9.0
2018-12-22T06:11:24.097Z,9.0
2018-12-22T06:12:24.333Z,8.9
2018-12-22T06:13:23.922Z,8.9
2018-12-22T06:14:23.853Z,8.8
2018-12-22T06:15:24.056Z,8.8
2018-12-22T06:16:24.059Z,8.8
2018-12-22T06:17:23.885Z,8.8
2018-12-22T06:18:24.310Z,8.8
2018-12-22T06:19:24.139Z,8.8
2018-12-22T06:20:24.329Z,8.7
2018-12-22T06:21:24.090Z,8.7
2018-12-22T06:22:24.140Z,8.8
2018-12-22T06:23:24.123Z,8.8
2018-12-22T06:24:23.932Z,8.8
2018-12-22T06:25:24.150Z,8.7
2018-12-22T06:26:24.106Z,8.7
2018-12-22T06:27:24.097Z,8.7
2018-12-22T06:28:23.929Z,8.7
2018-12-22T06:29:23.980Z,8.7
2018-12-22T06:30:24.349Z,8.6
2018-12-22T06:31:24.072Z,8.6
2018-12-22T06:32:24.126Z,8.7
2018-12-22T06:33:23.954Z,8.7
2018-12-22T06:34:24.109Z,8.7
2018-12-22T06:35:24.105Z,8.7
2018-12-22T06:36:24.098Z,8.7
2018-12-22T06:37:24.370Z,8.7
2018-12-22T06:38:24.096Z,8.7
2018-12-22T06:39:24.389Z,8.7
2018-12-22T06:40:24.150Z,8.6
2018-12-22T06:41:24.150Z,8.6
2018-12-22T06:42:23.904Z,8.6
2018-12-22T06:43:24.398Z,8.6
2018-12-22T06:44:24.094Z,8.6
2018-12-22T06:45:24.154Z,8.8
2018-12-22T06:46:24.419Z,8.8
2018-12-22T06:47:24.176Z,8.8
2018-12-22T06:48:24.387Z,8.7
2018-12-22T06:49:24.152Z,8.7
2018-12-22T06:50:24.401Z,8.7
2018-12-22T06:51:24.163Z,8.7
2018-12-22T06:52:24.154Z,8.7
2018-12-22T06:53:23.972Z,8.7
2018-12-22T06:54:24.148Z,8.7
2018-12-22T06:55:24.138Z,8.7
2018-12-22T06:56:23.980Z,8.7
2018-12-22T06:57:24.157Z,8.7
2018-12-22T06:58:23.982Z,8.7
2018-12-22T06:59:24.408Z,8.7
2018-12-22T07:00:24.171Z,8.8
2018-12-22T07:01:24.127Z,8.8
2018-12-22T07:02:24.138Z,8.8
2018-12-22T07:03:23.963Z,8.8
2018-12-22T07:04:24.140Z,8.8
2018-12-22T07:05:24.450Z,8.8
2018-12-22T07:06:24.161Z,8.8
2018-12-22T07:07:24.184Z,8.8
2018-12-22T07:08:23.973Z,8.8
2018-12-22T07:09:24.415Z,8.8
2018-12-22T07:10:25.474Z,8.8
2018-12-22T07:11:24.149Z,8.8
2018-12-22T07:12:24.177Z,8.8
2018-12-22T07:13:24.199Z,8.8
2018-12-22T07:14:23.989Z,8.8
2018-12-22T07:15:24.200Z,9.0
2018-12-22T07:16:24.195Z,9.0
2018-12-22T07:17:24.440Z,9.0
2018-12-22T07:18:24.217Z,9.1
2018-12-22T07:19:24.439Z,9.1
2018-12-22T07:20:24.189Z,9.1
2018-12-22T07:21:24.200Z,9.2
2018-12-22T07:22:24.245Z,9.2
2018-12-22T07:23:24.030Z,9.2
2018-12-22T07:24:24.253Z,9.2
2018-12-22T07:25:24.027Z,9.2
2018-12-22T07:26:24.191Z,9.3
2018-12-22T07:27:24.453Z,9.3
2018-12-22T07:28:24.222Z,9.2
2018-12-22T07:29:24.230Z,9.2
2018-12-22T07:30:26.081Z,9.2
2018-12-22T07:31:24.431Z,9.2
2018-12-22T07:32:24.085Z,9.2
2018-12-22T07:33:24.080Z,9.2
2018-12-22T07:34:24.859Z,9.2
2018-12-22T07:35:24.949Z,9.2
2018-12-22T07:36:25.256Z,9.2
2018-12-22T07:37:34.898Z,9.2
2018-12-22T07:38:24.459Z,9.2
2018-12-22T07:39:24.422Z,9.2
2018-12-22T07:40:24.352Z,9.2
2018-12-22T07:41:24.174Z,9.2
2018-12-22T07:42:24.221Z,9.2
2018-12-22T07:43:24.963Z,9.1
2018-12-22T07:44:24.581Z,9.1
2018-12-22T07:45:24.169Z,9.1
2018-12-22T07:46:24.048Z,9.0
2018-12-22T07:47:24.544Z,9.0
2018-12-22T07:48:24.151Z,9.0
2018-12-22T07:49:24.213Z,9.0
2018-12-22T07:50:24.536Z,9.0
2018-12-22T07:51:24.303Z,9.0
2018-12-22T07:52:24.316Z,9.0
2018-12-22T07:53:24.339Z,9.0
2018-12-22T07:54:24.288Z,9.0
2018-12-22T07:55:24.284Z,9.0
2018-12-22T07:56:27.131Z,8.9
2018-12-22T07:57:25.852Z,8.9
2018-12-22T07:58:24.364Z,8.9
2018-12-22T07:59:24.319Z,8.9
2018-12-22T08:00:24.145Z,8.9
2018-12-22T08:01:24.548Z,8.9
2018-12-22T08:02:24.310Z,8.9
2018-12-22T08:03:24.307Z,8.9
2018-12-22T08:04:24.591Z,8.8
2018-12-22T08:05:24.154Z,8.8
2018-12-22T08:06:24.749Z,8.8
2018-12-22T08:07:24.128Z,8.8
2018-12-22T08:08:24.410Z,8.8
2018-12-22T08:09:25.719Z,8.8
2018-12-22T08:10:24.551Z,8.8
2018-12-22T08:11:24.306Z,8.8
2018-12-22T08:12:24.358Z,8.8
2018-12-22T08:13:24.212Z,8.8
2018-12-22T08:14:24.171Z,8.8
2018-12-22T08:15:24.175Z,8.8
2018-12-22T08:16:24.319Z,8.8
2018-12-22T08:17:24.569Z,8.8
2018-12-22T08:18:24.252Z,8.8
2018-12-22T08:19:24.703Z,8.7
2018-12-22T08:20:24.415Z,8.7
2018-12-22T08:21:27.734Z,8.7
2018-12-22T08:22:24.569Z,8.8
2018-12-22T08:23:24.508Z,8.8
2018-12-22T08:24:24.216Z,8.8
2018-12-22T08:25:24.417Z,8.8
2018-12-22T08:26:24.602Z,8.8
2018-12-22T08:27:24.333Z,8.8
2018-12-22T08:28:24.155Z,8.8
2018-12-22T08:29:24.161Z,8.8
2018-12-22T08:30:24.372Z,8.8
2018-12-22T08:31:24.397Z,8.8
2018-12-22T08:32:24.161Z,8.9
2018-12-22T08:33:24.601Z,8.9
2018-12-22T08:34:24.399Z,9.0
2018-12-22T08:35:24.363Z,9.0
2018-12-22T08:36:24.438Z,9.0
2018-12-22T08:37:24.384Z,9.0
2018-12-22T08:38:24.568Z,9.0
2018-12-22T08:39:24.385Z,9.0
2018-12-22T08:40:24.622Z,9.0
2018-12-22T08:41:24.368Z,9.0
2018-12-22T08:42:24.360Z,9.0
2018-12-22T08:43:24.386Z,9.0
2018-12-22T08:44:24.400Z,9.2
2018-12-22T08:45:24.221Z,9.2
2018-12-22T08:46:24.680Z,9.2
2018-12-22T08:47:26.965Z,9.3
2018-12-22T08:48:24.638Z,9.3
2018-12-22T08:49:24.417Z,9.3
2018-12-22T08:50:24.349Z,9.1
2018-12-22T08:51:24.210Z,9.1
2018-12-22T08:52:24.355Z,9.2
2018-12-22T08:53:24.645Z,9.2
2018-12-22T08:54:24.421Z,9.2
2018-12-22T08:55:24.633Z,9.0
2018-12-22T08:56:24.214Z,9.0
2018-12-22T08:57:24.390Z,9.0
2018-12-22T08:58:24.200Z,9.0
2018-12-22T08:59:24.403Z,9.0
2018-12-22T09:00:24.412Z,9.0
2018-12-22T09:01:24.396Z,9.0
2018-12-22T09:02:24.475Z,9.0
2018-12-22T09:03:24.436Z,9.0
2018-12-22T09:04:24.664Z,9.0
2018-12-22T09:05:24.694Z,9.0
2018-12-22T09:06:24.636Z,9.0
2018-12-22T09:07:24.483Z,9.0
2018-12-22T09:08:24.248Z,9.0
2018-12-22T09:09:24.664Z,9.0
2018-12-22T09:10:24.420Z,9.0
2018-12-22T09:11:24.429Z,9.0
2018-12-22T09:12:24.432Z,9.0
2018-12-22T09:13:24.481Z,9.0
2018-12-22T09:14:24.465Z,9.0
2018-12-22T09:15:24.693Z,8.9
2018-12-22T09:16:24.447Z,8.9
2018-12-22T09:17:24.462Z,8.9
2018-12-22T09:18:24.677Z,8.9
2018-12-22T09:19:24.292Z,8.9
2018-12-22T09:20:25.128Z,8.9
2018-12-22T09:21:24.219Z,8.9
2018-12-22T09:22:24.455Z,8.9
2018-12-22T09:23:24.255Z,9.0
2018-12-22T09:24:24.501Z,9.0
2018-12-22T09:25:24.440Z,9.0
2018-12-22T09:26:24.485Z,9.0
2018-12-22T09:27:24.232Z,9.0
2018-12-22T09:28:24.278Z,9.1
2018-12-22T09:29:24.647Z,9.1
2018-12-22T09:30:24.312Z,9.2
2018-12-22T09:31:24.257Z,9.2
2018-12-22T09:32:24.489Z,9.2
2018-12-22T09:33:24.713Z,9.3
2018-12-22T09:34:24.730Z,9.3
2018-12-22T09:35:24.511Z,9.3
2018-12-22T09:36:24.488Z,9.3
2018-12-22T09:37:24.487Z,9.3
2018-12-22T09:38:24.468Z,9.4
2018-12-22T09:39:24.264Z,9.4
2018-12-22T09:40:24.491Z,9.4
2018-12-22T09:41:24.285Z,9.4
2018-12-22T09:42:24.277Z,9.4
2018-12-22T09:43:24.518Z,9.4
2018-12-22T09:44:24.505Z,9.4
2018-12-22T09:45:24.324Z,9.4
2018-12-22T09:46:24.339Z,9.4
2018-12-22T09:47:24.508Z,9.4
2018-12-22T09:48:24.605Z,9.4
2018-12-22T09:49:24.744Z,9.4
2018-12-22T09:50:24.571Z,9.4
2018-12-22T09:51:24.629Z,9.4
2018-12-22T09:52:24.592Z,9.4
2018-12-22T09:53:24.814Z,9.5
2018-12-22T09:54:24.773Z,9.5
2018-12-22T09:55:24.552Z,9.5
2018-12-22T09:56:24.728Z,9.5
2018-12-22T09:57:24.561Z,9.5
2018-12-22T09:58:24.347Z,9.4
2018-12-22T09:59:24.518Z,9.4
2018-12-22T10:00:24.317Z,9.4
2018-12-22T10:01:24.743Z,9.5
2018-12-22T10:02:24.556Z,9.5
2018-12-22T10:03:24.536Z,9.5
2018-12-22T10:04:24.593Z,9.5
2018-12-22T10:05:24.558Z,9.5
2018-12-22T10:06:24.753Z,9.5
2018-12-22T10:07:24.929Z,9.5
2018-12-22T10:08:24.309Z,9.5
2018-12-22T10:09:24.534Z,9.5
2018-12-22T10:10:24.376Z,9.5
2018-12-22T10:11:24.509Z,9.5
2018-12-22T10:12:24.559Z,9.5
2018-12-22T10:13:24.530Z,9.5
2018-12-22T10:14:24.800Z,9.5
2018-12-22T10:15:24.770Z,9.5
2018-12-22T10:16:24.761Z,9.5
2018-12-22T10:17:24.355Z,9.5
2018-12-22T10:18:24.747Z,9.5
2018-12-22T10:19:24.618Z,9.5
2018-12-22T10:20:24.831Z,9.5
2018-12-22T10:21:24.388Z,9.6
2018-12-22T10:22:24.548Z,9.6
2018-12-22T10:23:24.807Z,9.6
2018-12-22T10:24:24.361Z,9.6
2018-12-22T10:25:24.905Z,9.6
2018-12-22T10:26:24.607Z,9.6
2018-12-22T10:27:24.775Z,9.6
2018-12-22T10:28:24.843Z,9.6
2018-12-22T10:29:24.527Z,9.6
2018-12-22T10:30:24.590Z,9.6
2018-12-22T10:31:24.606Z,9.6
2018-12-22T10:32:24.389Z,9.6
2018-12-22T10:33:24.835Z,9.6
2018-12-22T10:34:24.839Z,9.7
2018-12-22T10:35:24.823Z,9.7
2018-12-22T10:36:24.432Z,9.7
2018-12-22T10:37:24.580Z,9.7
2018-12-22T10:38:24.661Z,9.7
2018-12-22T10:39:24.373Z,9.7
2018-12-22T10:40:24.566Z,9.7
2018-12-22T10:41:24.852Z,9.6
2018-12-22T10:42:24.352Z,9.6
2018-12-22T10:43:24.815Z,9.6
2018-12-22T10:44:24.365Z,9.6
2018-12-22T10:45:24.822Z,9.6
2018-12-22T10:46:24.792Z,9.5
2018-12-22T10:47:24.428Z,9.5
2018-12-22T10:48:24.568Z,9.5
2018-12-22T10:49:24.808Z,9.5
2018-12-22T10:50:24.622Z,9.5
2018-12-22T10:51:24.681Z,9.5
2018-12-22T10:52:24.592Z,9.5
2018-12-22T10:53:24.833Z,9.5
2018-12-22T10:54:24.463Z,9.4
2018-12-22T10:55:24.866Z,9.4
2018-12-22T10:56:24.629Z,9.4
2018-12-22T10:57:24.431Z,9.4
2018-12-22T10:58:24.888Z,9.4
2018-12-22T10:59:24.620Z,9.4
2018-12-22T11:00:24.859Z,9.4
2018-12-22T11:01:26.425Z,9.4
2018-12-22T11:02:24.884Z,9.4
2018-12-22T11:03:24.634Z,9.4
2018-12-22T11:04:24.468Z,9.4
2018-12-22T11:05:24.444Z,9.4
2018-12-22T11:06:24.437Z,9.4
2018-12-22T11:07:24.696Z,9.4
2018-12-22T11:08:25.211Z,9.4
2018-12-22T11:09:24.690Z,9.5
2018-12-22T11:10:24.457Z,9.5
2018-12-22T11:11:24.942Z,9.5
2018-12-22T11:12:24.653Z,9.5
2018-12-22T11:13:24.846Z,9.5
2018-12-22T11:14:24.931Z,9.6
2018-12-22T11:15:24.887Z,9.6
2018-12-22T11:16:24.702Z,9.6
2018-12-22T11:17:24.954Z,9.6
2018-12-22T11:18:24.674Z,9.6
2018-12-22T11:19:24.699Z,9.6
2018-12-22T11:20:24.938Z,9.6
2018-12-22T11:21:24.668Z,9.6
2018-12-22T11:22:24.707Z,9.4
2018-12-22T11:23:24.496Z,9.4
2018-12-22T11:24:24.593Z,9.4
2018-12-22T11:25:24.669Z,9.3
2018-12-22T11:26:24.715Z,9.3
2018-12-22T11:27:24.519Z,9.2
2018-12-22T11:28:24.710Z,9.2
2018-12-22T11:29:24.934Z,9.2
2018-12-22T11:30:24.902Z,9.0
2018-12-22T11:31:24.536Z,9.0
2018-12-22T11:32:24.525Z,9.0
2018-12-22T11:33:24.725Z,9.0
2018-12-22T11:34:24.724Z,9.0
2018-12-22T11:35:24.916Z,9.0
2018-12-22T11:36:25.020Z,9.0
2018-12-22T11:37:24.710Z,9.1
2018-12-22T11:38:24.482Z,9.1
2018-12-22T11:39:24.707Z,9.1
2018-12-22T11:40:24.961Z,9.2
2018-12-22T11:41:24.815Z,9.2
2018-12-22T11:42:24.957Z,9.1
2018-12-22T11:43:24.778Z,9.1
2018-12-22T11:44:24.724Z,9.1
2018-12-22T11:45:24.772Z,9.1
2018-12-22T11:46:24.535Z,9.1
2018-12-22T11:47:24.908Z,9.1
2018-12-22T11:48:24.957Z,9.1
2018-12-22T11:49:24.750Z,9.1
2018-12-22T11:50:24.967Z,9.2
2018-12-22T11:51:24.962Z,9.2
2018-12-22T11:52:24.752Z,9.2
2018-12-22T11:53:24.733Z,9.2
2018-12-22T11:54:24.771Z,9.2
2018-12-22T11:55:24.749Z,9.1
2018-12-22T11:56:25.017Z,9.1
2018-12-22T11:57:25.103Z,9.1
2018-12-22T11:58:24.992Z,9.1
2018-12-22T11:59:24.790Z,9.1
2018-12-22T12:00:24.743Z,9.1
2018-12-22T12:01:24.770Z,9.1
2018-12-22T12:02:24.795Z,9.1
2018-12-22T12:03:24.745Z,9.0
2018-12-22T12:04:24.753Z,9.0
2018-12-22T12:05:24.579Z,8.9
2018-12-22T12:06:24.803Z,8.9
2018-12-22T12:07:24.989Z,8.9
2018-12-22T12:08:24.742Z,8.9
2018-12-22T12:09:26.569Z,8.9
2018-12-22T12:10:24.780Z,8.8
2018-12-22T12:11:24.624Z,8.8
2018-12-22T12:12:24.972Z,8.8
2018-12-22T12:13:24.883Z,8.7
2018-12-22T12:14:24.992Z,8.7
2018-12-22T12:15:24.844Z,8.6
2018-12-22T12:16:25.001Z,8.6
2018-12-22T12:17:24.813Z,8.6
2018-12-22T12:18:25.030Z,8.4
2018-12-22T12:19:25.304Z,8.4
2018-12-22T12:20:24.761Z,8.3
2018-12-22T12:21:25.445Z,8.3
2018-12-22T12:22:24.819Z,8.3
2018-12-22T12:23:24.613Z,8.2
2018-12-22T12:24:24.825Z,8.2
2018-12-22T12:25:25.039Z,8.2
2018-12-22T12:26:24.557Z,8.1
2018-12-22T12:27:25.154Z,8.1
2018-12-22T12:28:25.057Z,8.0
2018-12-22T12:29:24.882Z,8.0
2018-12-22T12:30:25.026Z,8.0
2018-12-22T12:31:24.880Z,7.9
2018-12-22T12:32:24.602Z,7.9
2018-12-22T12:33:24.641Z,7.9
2018-12-22T12:34:25.045Z,7.9
2018-12-22T12:35:25.196Z,7.9
2018-12-22T12:36:24.952Z,7.7
2018-12-22T12:37:25.513Z,7.7
2018-12-22T12:38:25.065Z,7.5
2018-12-22T12:39:24.884Z,7.5
2018-12-22T12:40:24.784Z,7.5
2018-12-22T12:41:25.062Z,7.6
2018-12-22T12:42:24.710Z,7.6
2018-12-22T12:43:25.778Z,7.6
2018-12-22T12:44:24.787Z,7.6
2018-12-22T12:45:24.862Z,7.6
2018-12-22T12:46:24.860Z,7.6
2018-12-22T12:47:24.889Z,7.6
2018-12-22T12:48:24.894Z,7.5
2018-12-22T12:49:25.422Z,7.5
2018-12-22T12:50:25.048Z,7.5
2018-12-22T12:51:24.745Z,7.4
2018-12-22T12:52:24.968Z,7.4
2018-12-22T12:53:24.874Z,7.4
2018-12-22T12:54:24.665Z,7.5
2018-12-22T12:55:24.724Z,7.5
2018-12-22T12:56:24.866Z,7.4
2018-12-22T12:57:27.069Z,7.4
2018-12-22T12:58:24.861Z,7.4
2018-12-22T12:59:24.824Z,7.4
2018-12-22T13:00:25.109Z,7.4
2018-12-22T13:01:24.899Z,7.4
2018-12-22T13:02:24.892Z,7.4
2018-12-22T13:03:24.751Z,7.4
2018-12-22T13:04:24.919Z,7.4
2018-12-22T13:05:25.190Z,7.4
2018-12-22T13:06:24.752Z,7.5
2018-12-22T13:07:24.774Z,7.5
2018-12-22T13:08:24.915Z,7.5
2018-12-22T13:09:25.066Z,7.5
2018-12-22T13:10:25.843Z,7.5
2018-12-22T13:11:24.971Z,7.5
2018-12-22T13:12:24.879Z,7.5
2018-12-22T13:13:24.730Z,7.5
2018-12-22T13:14:24.677Z,7.5
2018-12-22T13:15:24.713Z,7.5
2018-12-22T13:16:25.102Z,7.5
2018-12-22T13:17:25.119Z,7.5
2018-12-22T13:18:24.684Z,7.5
2018-12-22T13:19:24.731Z,7.5
2018-12-22T13:20:24.863Z,7.5
2018-12-22T13:21:25.212Z,7.6
2018-12-22T13:22:24.858Z,7.6
2018-12-22T13:23:25.187Z,7.6
2018-12-22T13:24:24.891Z,7.7
2018-12-22T13:25:24.959Z,7.7
2018-12-22T13:26:24.700Z,7.7
2018-12-22T13:27:24.708Z,7.7
2018-12-22T13:28:24.723Z,7.7
2018-12-22T13:29:26.108Z,7.7
2018-12-22T13:30:25.155Z,7.7
2018-12-22T13:31:24.944Z,7.7
2018-12-22T13:32:24.713Z,7.8
2018-12-22T13:33:25.418Z,7.8
2018-12-22T13:34:24.945Z,8.0
2018-12-22T13:35:24.821Z,8.0
2018-12-22T13:36:24.903Z,8.0
2018-12-22T13:37:25.011Z,8.2
2018-12-22T13:38:25.212Z,8.2
2018-12-22T13:39:25.967Z,8.6
2018-12-22T13:40:24.917Z,8.6
2018-12-22T13:41:26.213Z,8.6
2018-12-22T13:42:24.943Z,8.8
2018-12-22T13:43:25.647Z,8.8
2018-12-22T13:44:25.146Z,9.0
2018-12-22T13:45:24.980Z,9.0
2018-12-22T13:46:24.965Z,9.0